Time;durP1;ratioP1;P1;durP2;ratioP2;P2;SDS_P1;SDS_P2;PMS_P1;PMS_P2;Temp;Humidity;BMP_temperature;BMP_pressure;BME280_temperature;BME280_humidity;BME280_pressure;Samples;Min_cycle;Max_cycle;Signal;HPM_P1;HPM_P2
2021/12/01 00:01:52;;;;;;;2.07;0.90;;;;;;;;;;5077306;28;20826;-71
2021/12/01 00:04:19;;;;;;;2.37;1.40;;;;;;;;;;5077910;28;20451;-71
2021/12/01 00:06:47;;;;;;;1.73;1.00;;;;;;;;;;5077371;28;21022;-71
2021/12/01 00:09:14;;;;;;;1.20;0.90;;;;;;;;;;5077564;28;20459;-70
2021/12/01 00:11:41;;;;;;;1.47;1.03;;;;;;;;;;5077421;28;20471;-71
2021/12/01 00:14:08;;;;;;;2.53;1.00;;;;;;;;;;5077602;28;20456;-71
2021/12/01 00:16:36;;;;;;;1.43;0.80;;;;;;;;;;5077097;28;20455;-71
2021/12/01 00:19:03;;;;;;;1.30;0.90;;;;;;;;;;5077110;28;20454;-71
2021/12/01 00:21:30;;;;;;;2.70;1.17;;;;;;;;;;5076731;28;20456;-71
2021/12/01 00:23:58;;;;;;;1.60;1.10;;;;;;;;;;5077021;28;20447;-71
2021/12/01 00:26:26;;;;;;;1.20;0.80;;;;;;;;;;5078509;28;20452;-71
2021/12/01 00:28:53;;;;;;;4.03;1.10;;;;;;;;;;5078377;28;20487;-71
2021/12/01 00:31:20;;;;;;;1.30;0.90;;;;;;;;;;5078289;28;20451;-70
2021/12/01 00:33:47;;;;;;;1.20;0.80;;;;;;;;;;5077956;28;20452;-71
2021/12/01 00:36:15;;;;;;;1.17;0.73;;;;;;;;;;5077828;28;20459;-71
2021/12/01 00:38:42;;;;;;;2.60;0.90;;;;;;;;;;5077743;28;20467;-71
2021/12/01 00:41:11;;;;;;;1.20;0.77;;;;;;;;;;5077765;28;20459;-71
2021/12/01 00:43:39;;;;;;;1.10;0.70;;;;;;;;;;5078063;28;20452;-71
2021/12/01 00:46:13;;;;;;;1.30;0.90;;;;;;;;;;5077725;28;20460;-71
2021/12/01 00:48:40;;;;;;;1.87;0.80;;;;;;;;;;5077184;28;20484;-71
2021/12/01 00:51:07;;;;;;;1.20;0.70;;;;;;;;;;5077447;28;20456;-71
2021/12/01 00:53:35;;;;;;;1.27;0.87;;;;;;;;;;5077510;28;20455;-71
2021/12/01 00:56:02;;;;;;;1.23;0.70;;;;;;;;;;5077445;28;20452;-71
2021/12/01 00:58:30;;;;;;;2.60;1.10;;;;;;;;;;5077316;28;20448;-71
2021/12/01 01:01:00;;;;;;;1.83;0.97;;;;;;;;;;5077899;28;20458;-71
2021/12/01 01:03:28;;;;;;;1.20;0.80;;;;;;;;;;5077220;28;20494;-71
2021/12/01 01:05:55;;;;;;;1.30;0.90;;;;;;;;;;5076487;28;20451;-71
2021/12/01 01:08:22;;;;;;;1.20;0.80;;;;;;;;;;5076376;28;21004;-71
2021/12/01 01:11:10;;;;;;;1.20;0.80;;;;;;;;;;5076585;28;20458;-71
2021/12/01 01:16:23;;;;;;;1.77;1.00;;;;;;;;;;5076415;28;20473;-70
2021/12/01 01:18:52;;;;;;;1.20;0.80;;;;;;;;;;5076643;28;20818;-71
2021/12/01 01:21:19;;;;;;;1.10;0.70;;;;;;;;;;5076866;28;20459;-71
2021/12/01 01:33:07;;;;;;;3.10;1.00;;;;;;;;;;5076757;28;20403;-71
2021/12/01 01:38:38;;;;;;;1.23;0.80;;;;;;;;;;5076133;28;20411;-71
2021/12/01 01:41:07;;;;;;;1.53;0.87;;;;;;;;;;5076524;28;20443;-71
2021/12/01 01:43:35;;;;;;;1.10;0.80;;;;;;;;;;5076468;28;20448;-71
2021/12/01 01:46:03;;;;;;;2.13;0.83;;;;;;;;;;5076109;28;20533;-71
2021/12/01 01:48:32;;;;;;;1.10;0.70;;;;;;;;;;5076202;28;20483;-71
2021/12/01 01:51:00;;;;;;;1.17;0.70;;;;;;;;;;5075903;28;20463;-71
2021/12/01 01:53:28;;;;;;;1.30;0.80;;;;;;;;;;5076069;28;20455;-71
2021/12/01 01:55:56;;;;;;;1.20;0.80;;;;;;;;;;5075278;28;20465;-71
2021/12/01 01:58:23;;;;;;;1.20;0.80;;;;;;;;;;5075479;28;20448;-71
2021/12/01 02:00:52;;;;;;;1.20;0.80;;;;;;;;;;5075487;28;20462;-71
2021/12/01 02:03:20;;;;;;;1.10;0.80;;;;;;;;;;5075807;28;20448;-71
2021/12/01 02:05:49;;;;;;;1.10;0.70;;;;;;;;;;5075824;28;20455;-71
2021/12/01 02:08:18;;;;;;;1.10;0.70;;;;;;;;;;5074985;28;20847;-71
2021/12/01 02:10:48;;;;;;;1.23;0.70;;;;;;;;;;5075064;28;20452;-71
2021/12/01 02:13:15;;;;;;;1.40;0.80;;;;;;;;;;5074967;28;20452;-71
2021/12/01 02:15:43;;;;;;;1.10;0.70;;;;;;;;;;5075197;28;20933;-71
2021/12/01 02:18:10;;;;;;;1.10;0.70;;;;;;;;;;5074306;28;20466;-71
2021/12/01 02:20:39;;;;;;;1.10;0.70;;;;;;;;;;5074711;28;20979;-71
2021/12/01 02:23:06;;;;;;;1.13;0.73;;;;;;;;;;5075151;28;21002;-71
2021/12/01 02:25:33;;;;;;;2.40;0.87;;;;;;;;;;5075232;28;20814;-71
2021/12/01 02:28:00;;;;;;;1.20;0.70;;;;;;;;;;5074787;28;20488;-71
2021/12/01 02:30:27;;;;;;;1.10;0.70;;;;;;;;;;5074565;28;20459;-70
2021/12/01 02:32:54;;;;;;;1.20;0.70;;;;;;;;;;5074577;28;20823;-70
2021/12/01 02:35:21;;;;;;;1.10;0.70;;;;;;;;;;5074302;28;20458;-70
2021/12/01 02:37:50;;;;;;;1.10;0.70;;;;;;;;;;5073172;28;20447;-71
2021/12/01 02:40:17;;;;;;;1.30;0.80;;;;;;;;;;5074533;28;20447;-71
2021/12/01 02:42:44;;;;;;;1.10;0.70;;;;;;;;;;5074386;28;20455;-71
2021/12/01 02:45:11;;;;;;;1.40;0.80;;;;;;;;;;5074716;28;20851;-71
2021/12/01 02:47:38;;;;;;;1.40;0.77;;;;;;;;;;5074323;28;20488;-71
2021/12/01 02:50:06;;;;;;;1.10;0.70;;;;;;;;;;5074557;28;20459;-71
2021/12/01 02:52:35;;;;;;;1.10;0.70;;;;;;;;;;5074862;28;20463;-71
2021/12/01 02:55:04;;;;;;;1.10;0.70;;;;;;;;;;5074213;28;20475;-71
2021/12/01 02:57:40;;;;;;;1.10;0.70;;;;;;;;;;5074030;28;20459;-71
2021/12/01 03:00:08;;;;;;;1.33;0.70;;;;;;;;;;5075024;28;20463;-71
2021/12/01 03:02:36;;;;;;;1.10;0.67;;;;;;;;;;5075401;28;20448;-71
2021/12/01 03:05:03;;;;;;;1.10;0.70;;;;;;;;;;5074779;28;20464;-71
2021/12/01 03:07:30;;;;;;;1.30;0.70;;;;;;;;;;5074764;28;20459;-71
2021/12/01 03:09:57;;;;;;;1.10;0.70;;;;;;;;;;5075202;28;20452;-71
2021/12/01 03:12:29;;;;;;;1.10;0.67;;;;;;;;;;5075301;28;20440;-71
2021/12/01 03:14:56;;;;;;;1.20;0.80;;;;;;;;;;5075511;28;20463;-71
2021/12/01 03:17:23;;;;;;;1.10;0.70;;;;;;;;;;5075356;28;20944;-71
2021/12/01 03:19:50;;;;;;;1.10;0.70;;;;;;;;;;5075466;28;20463;-71
2021/12/01 03:22:17;;;;;;;1.30;0.80;;;;;;;;;;5076135;28;20452;-71
2021/12/01 03:24:44;;;;;;;1.20;0.80;;;;;;;;;;5075541;28;20451;-71
2021/12/01 03:27:11;;;;;;;1.20;0.80;;;;;;;;;;5075045;28;20459;-71
2021/12/01 03:29:40;;;;;;;1.50;0.80;;;;;;;;;;5075090;28;20487;-71
2021/12/01 03:32:07;;;;;;;1.10;0.70;;;;;;;;;;5074968;28;20455;-70
2021/12/01 03:34:36;;;;;;;1.10;0.70;;;;;;;;;;5075341;28;20821;-71
2021/12/01 03:37:03;;;;;;;1.10;0.70;;;;;;;;;;5074336;28;20477;-71
2021/12/01 03:39:30;;;;;;;1.13;0.73;;;;;;;;;;5075155;28;20448;-71
2021/12/01 03:41:57;;;;;;;1.10;0.70;;;;;;;;;;5074483;28;20535;-71
2021/12/01 03:44:24;;;;;;;1.20;0.80;;;;;;;;;;5074467;28;20455;-71
2021/12/01 03:46:53;;;;;;;1.10;0.70;;;;;;;;;;5075165;28;20436;-71
2021/12/01 03:49:20;;;;;;;1.13;0.80;;;;;;;;;;5076611;28;20509;-71
2021/12/01 03:51:48;;;;;;;1.20;0.80;;;;;;;;;;5078943;28;20460;-71
2021/12/01 03:54:15;;;;;;;2.20;0.90;;;;;;;;;;5077966;28;20803;-71
2021/12/01 03:56:42;;;;;;;1.10;0.70;;;;;;;;;;5077147;28;20826;-71
2021/12/01 03:59:09;;;;;;;1.20;0.80;;;;;;;;;;5077485;28;20941;-71
2021/12/01 04:01:36;;;;;;;1.10;0.70;;;;;;;;;;5077703;28;20455;-71
2021/12/01 04:04:05;;;;;;;2.43;0.80;;;;;;;;;;5077549;28;20451;-71
2021/12/01 04:06:33;;;;;;;1.10;0.70;;;;;;;;;;5078184;28;20450;-71
2021/12/01 04:09:00;;;;;;;1.93;0.70;;;;;;;;;;5077568;28;20483;-71
2021/12/01 04:11:27;;;;;;;1.10;0.70;;;;;;;;;;5077901;28;20945;-70
2021/12/01 04:13:56;;;;;;;1.20;0.80;;;;;;;;;;5077578;28;20455;-71
2021/12/01 04:16:23;;;;;;;1.10;0.63;;;;;;;;;;5077345;28;20477;-71
2021/12/01 04:18:50;;;;;;;1.20;0.80;;;;;;;;;;5076915;28;20443;-71
2021/12/01 04:21:20;;;;;;;1.20;0.70;;;;;;;;;;5076912;28;20468;-70
2021/12/01 04:23:47;;;;;;;1.10;0.70;;;;;;;;;;5076692;28;20452;-71
2021/12/01 04:26:19;;;;;;;1.10;0.60;;;;;;;;;;5076966;28;20452;-70
2021/12/01 04:28:46;;;;;;;1.43;0.80;;;;;;;;;;5077086;28;20475;-71
2021/12/01 04:31:13;;;;;;;1.10;0.70;;;;;;;;;;5076951;28;20509;-70
2021/12/01 04:33:40;;;;;;;1.10;0.70;;;;;;;;;;5076798;28;20820;-70
2021/12/01 04:36:08;;;;;;;1.10;0.70;;;;;;;;;;5076497;28;20455;-70
2021/12/01 04:38:37;;;;;;;1.10;0.70;;;;;;;;;;5076125;28;20463;-71
2021/12/01 04:41:05;;;;;;;1.20;0.80;;;;;;;;;;5076425;28;20451;-71
2021/12/01 04:43:33;;;;;;;1.13;0.73;;;;;;;;;;5076080;28;20925;-70
2021/12/01 04:46:00;;;;;;;1.43;0.80;;;;;;;;;;5076330;28;20806;-71
2021/12/01 04:48:28;;;;;;;1.40;0.90;;;;;;;;;;5076511;28;20857;-70
2021/12/01 04:50:55;;;;;;;1.20;0.80;;;;;;;;;;5076576;28;20452;-71
2021/12/01 04:53:22;;;;;;;1.10;0.70;;;;;;;;;;5077147;28;20815;-71
2021/12/01 04:55:50;;;;;;;1.20;0.90;;;;;;;;;;5076793;28;20459;-71
2021/12/01 04:58:18;;;;;;;1.17;0.70;;;;;;;;;;5075724;28;20818;-71
2021/12/01 05:00:45;;;;;;;1.20;0.77;;;;;;;;;;5074917;28;20471;-70
2021/12/01 05:03:12;;;;;;;1.43;0.90;;;;;;;;;;5075873;28;20444;-71
2021/12/01 05:05:39;;;;;;;1.20;0.73;;;;;;;;;;5075552;28;20856;-71
2021/12/01 05:08:06;;;;;;;1.10;0.70;;;;;;;;;;5075461;28;20478;-71
2021/12/01 05:10:33;;;;;;;4.33;1.73;;;;;;;;;;5075429;28;20458;-71
2021/12/01 05:13:02;;;;;;;1.10;0.70;;;;;;;;;;5075111;28;20456;-71
2021/12/01 05:15:29;;;;;;;1.20;0.80;;;;;;;;;;5075670;28;20455;-71
2021/12/01 05:17:56;;;;;;;1.23;0.80;;;;;;;;;;5075106;28;20463;-71
2021/12/01 05:20:23;;;;;;;7.90;1.00;;;;;;;;;;5075197;28;20460;-71
2021/12/01 05:22:50;;;;;;;1.20;0.70;;;;;;;;;;5075558;28;20444;-71
2021/12/01 05:25:17;;;;;;;1.20;0.80;;;;;;;;;;5075722;28;20444;-71
2021/12/01 05:27:44;;;;;;;1.30;0.70;;;;;;;;;;5075354;28;20451;-71
2021/12/01 05:30:13;;;;;;;1.40;1.00;;;;;;;;;;5075099;28;20490;-70
2021/12/01 05:32:40;;;;;;;1.30;0.90;;;;;;;;;;5075267;28;20455;-71
2021/12/01 05:35:08;;;;;;;1.10;0.77;;;;;;;;;;5074932;28;20459;-71
2021/12/01 05:37:35;;;;;;;1.40;1.00;;;;;;;;;;5075085;28;20451;-71
2021/12/01 05:40:02;;;;;;;1.83;0.90;;;;;;;;;;5075222;28;20949;-70
2021/12/01 05:42:30;;;;;;;2.17;1.03;;;;;;;;;;5075459;28;20454;-71
2021/12/01 05:44:57;;;;;;;1.77;1.20;;;;;;;;;;5074910;28;20467;-70
2021/12/01 05:47:26;;;;;;;1.27;0.97;;;;;;;;;;5074636;28;20455;-71
2021/12/01 05:49:53;;;;;;;1.40;0.97;;;;;;;;;;5074596;28;20485;-70
2021/12/01 05:52:20;;;;;;;1.30;0.87;;;;;;;;;;5075182;28;20463;-71
2021/12/01 05:54:50;;;;;;;1.47;1.00;;;;;;;;;;5075371;28;20949;-71
2021/12/01 05:57:17;;;;;;;1.40;0.90;;;;;;;;;;5075026;28;20464;-71
2021/12/01 05:59:45;;;;;;;1.73;1.10;;;;;;;;;;5075490;28;20475;-71
2021/12/01 06:02:12;;;;;;;5.70;3.53;;;;;;;;;;5075459;28;20463;-71
2021/12/01 06:04:41;;;;;;;8.13;5.80;;;;;;;;;;5075625;28;20812;-71
2021/12/01 06:07:08;;;;;;;8.60;5.80;;;;;;;;;;5074987;28;20642;-71
2021/12/01 06:09:35;;;;;;;16.73;10.00;;;;;;;;;;5075484;28;20490;-71
2021/12/01 06:12:02;;;;;;;4.53;3.10;;;;;;;;;;5075264;28;20454;-71
2021/12/01 06:14:30;;;;;;;3.00;2.00;;;;;;;;;;5075941;28;20452;-71
2021/12/01 06:16:58;;;;;;;2.40;1.93;;;;;;;;;;5075024;28;20456;-70
2021/12/01 06:19:25;;;;;;;4.43;3.20;;;;;;;;;;5075131;28;20505;-71
2021/12/01 06:21:54;;;;;;;3.20;2.70;;;;;;;;;;5074408;28;20452;-71
2021/12/01 06:24:21;;;;;;;2.73;2.30;;;;;;;;;;5074693;28;20452;-71
2021/12/01 06:26:48;;;;;;;2.20;1.83;;;;;;;;;;5074225;28;20451;-71
2021/12/01 06:29:15;;;;;;;2.40;2.10;;;;;;;;;;5074395;28;20498;-71
2021/12/01 06:31:42;;;;;;;3.10;2.03;;;;;;;;;;5074213;28;20456;-71
2021/12/01 06:34:09;;;;;;;8.30;4.93;;;;;;;;;;5074022;28;20439;-71
2021/12/01 06:36:36;;;;;;;11.47;6.63;;;;;;;;;;5073565;28;20799;-71
2021/12/01 06:39:05;;;;;;;16.73;11.40;;;;;;;;;;5073761;28;20455;-71
2021/12/01 06:41:32;;;;;;;9.50;6.53;;;;;;;;;;5074132;28;20467;-71
2021/12/01 06:44:00;;;;;;;10.83;7.50;;;;;;;;;;5073955;28;20459;-71
2021/12/01 06:46:28;;;;;;;12.00;6.10;;;;;;;;;;5073721;28;20455;-71
2021/12/01 06:48:56;;;;;;;9.47;5.97;;;;;;;;;;5073311;28;20851;-71
2021/12/01 06:51:23;;;;;;;8.63;5.27;;;;;;;;;;5073731;28;20865;-71
2021/12/01 06:53:50;;;;;;;10.07;6.10;;;;;;;;;;5073755;28;20505;-71
2021/12/01 06:56:19;;;;;;;16.47;8.83;;;;;;;;;;5073431;28;20452;-71
2021/12/01 06:58:47;;;;;;;10.50;6.80;;;;;;;;;;5073439;28;20483;-71
2021/12/01 07:01:14;;;;;;;13.60;7.83;;;;;;;;;;5073391;28;20455;-71
2021/12/01 07:03:41;;;;;;;9.13;6.33;;;;;;;;;;5073761;28;20463;-71
2021/12/01 07:06:09;;;;;;;12.33;7.90;;;;;;;;;;5073195;28;20823;-71
2021/12/01 07:08:36;;;;;;;10.90;7.00;;;;;;;;;;5073270;28;20443;-71
2021/12/01 07:11:03;;;;;;;9.30;5.80;;;;;;;;;;5085698;28;21001;-71
2021/12/01 07:13:33;;;;;;;8.50;6.00;;;;;;;;;;5084731;28;20837;-71
2021/12/01 07:16:00;;;;;;;7.70;5.80;;;;;;;;;;5093366;28;20928;-71
2021/12/01 07:18:28;;;;;;;9.47;5.80;;;;;;;;;;5093366;28;20454;-71
2021/12/01 07:20:55;;;;;;;5.30;4.10;;;;;;;;;;5093729;28;20962;-71
2021/12/01 07:23:23;;;;;;;21.63;14.70;;;;;;;;;;5094098;28;20450;-71
2021/12/01 07:25:50;;;;;;;13.43;7.30;;;;;;;;;;5097591;28;20862;-71
2021/12/01 07:28:17;;;;;;;4.80;2.90;;;;;;;;;;5097468;28;20454;-71
2021/12/01 07:30:45;;;;;;;5.33;4.27;;;;;;;;;;5097433;28;20477;-71
2021/12/01 07:33:13;;;;;;;5.07;3.47;;;;;;;;;;5097712;28;20469;-71
2021/12/01 07:35:40;;;;;;;3.73;2.63;;;;;;;;;;5097497;28;20449;-71
2021/12/01 07:38:07;;;;;;;2.90;2.17;;;;;;;;;;5097264;28;20447;-71
2021/12/01 07:40:34;;;;;;;2.80;2.13;;;;;;;;;;5097697;28;20451;-71
2021/12/01 07:43:01;;;;;;;3.67;2.13;;;;;;;;;;5097287;28;20446;-71
2021/12/01 07:45:29;;;;;;;4.40;2.50;;;;;;;;;;5097543;28;20834;-71
2021/12/01 07:47:57;;;;;;;6.87;2.90;;;;;;;;;;5097126;28;20454;-71
2021/12/01 07:50:25;;;;;;;4.13;2.70;;;;;;;;;;5097424;28;20478;-71
2021/12/01 07:52:52;;;;;;;4.07;2.70;;;;;;;;;;5097081;28;20932;-71
2021/12/01 07:55:19;;;;;;;10.40;5.70;;;;;;;;;;5084004;28;20463;-71
2021/12/01 07:57:46;;;;;;;3.57;2.47;;;;;;;;;;5077273;28;20486;-71
2021/12/01 08:00:14;;;;;;;3.77;2.20;;;;;;;;;;5076845;28;20451;-71
2021/12/01 08:02:41;;;;;;;3.13;2.40;;;;;;;;;;5081943;28;20480;-71
2021/12/01 08:05:10;;;;;;;3.23;2.90;;;;;;;;;;5096653;28;20462;-71
2021/12/01 08:07:38;;;;;;;6.50;5.33;;;;;;;;;;5088040;28;20460;-71
2021/12/01 08:10:07;;;;;;;8.67;6.10;;;;;;;;;;5076493;28;20486;-71
2021/12/01 08:12:34;;;;;;;6.60;4.50;;;;;;;;;;5076802;28;20443;-71
2021/12/01 08:15:02;;;;;;;6.27;4.60;;;;;;;;;;5075359;28;20509;-71
2021/12/01 08:17:29;;;;;;;7.70;5.50;;;;;;;;;;5075679;28;20447;-71
2021/12/01 08:19:57;;;;;;;7.87;4.70;;;;;;;;;;5076221;28;20952;-71
2021/12/01 08:22:26;;;;;;;8.20;4.43;;;;;;;;;;5076176;28;20505;-71
2021/12/01 08:24:54;;;;;;;4.43;3.50;;;;;;;;;;5076021;28;20456;-71
2021/12/01 08:27:21;;;;;;;6.47;3.93;;;;;;;;;;5076258;28;20448;-71
2021/12/01 08:29:48;;;;;;;10.70;7.13;;;;;;;;;;5076224;28;20854;-71
2021/12/01 08:32:15;;;;;;;9.90;5.83;;;;;;;;;;5076432;28;20452;-71
2021/12/01 08:34:47;;;;;;;10.40;5.67;;;;;;;;;;5074995;28;20474;-71
2021/12/01 08:37:16;;;;;;;16.37;8.33;;;;;;;;;;5075766;28;20452;-71
2021/12/01 08:39:45;;;;;;;9.87;6.83;;;;;;;;;;5076013;28;20455;-71
2021/12/01 08:42:12;;;;;;;8.00;6.33;;;;;;;;;;5075789;28;20468;-71
2021/12/01 08:44:45;;;;;;;5.80;4.20;;;;;;;;;;5076040;28;20559;-71
2021/12/01 08:47:12;;;;;;;6.10;3.97;;;;;;;;;;5075814;28;20458;-71
2021/12/01 08:49:39;;;;;;;6.60;3.57;;;;;;;;;;5075558;28;20495;-71
2021/12/01 08:52:07;;;;;;;5.17;3.73;;;;;;;;;;5075482;28;20485;-71
2021/12/01 08:54:34;;;;;;;7.93;5.37;;;;;;;;;;5075852;28;20800;-71
2021/12/01 08:57:02;;;;;;;5.60;4.20;;;;;;;;;;5075343;28;20860;-71
2021/12/01 08:59:30;;;;;;;8.27;4.17;;;;;;;;;;5075520;28;20451;-71
2021/12/01 09:01:57;;;;;;;11.17;4.37;;;;;;;;;;5075498;28;20478;-71
2021/12/01 09:04:24;;;;;;;4.53;3.00;;;;;;;;;;5075451;28;20962;-71
2021/12/01 09:06:51;;;;;;;4.33;3.60;;;;;;;;;;5075232;28;20455;-71
2021/12/01 09:09:19;;;;;;;5.73;3.70;;;;;;;;;;5075484;28;20456;-71
2021/12/01 09:11:46;;;;;;;4.70;3.80;;;;;;;;;;5075388;28;20455;-71
2021/12/01 09:14:15;;;;;;;4.03;3.30;;;;;;;;;;5075639;28;20456;-72
2021/12/01 09:16:42;;;;;;;4.20;2.90;;;;;;;;;;5075778;28;20456;-72
2021/12/01 09:19:09;;;;;;;7.40;3.53;;;;;;;;;;5075870;28;20459;-72
2021/12/01 09:21:36;;;;;;;6.00;3.87;;;;;;;;;;5075469;28;20963;-71
2021/12/01 09:24:04;;;;;;;4.40;2.63;;;;;;;;;;5075792;28;20953;-71
2021/12/01 09:26:31;;;;;;;4.10;2.10;;;;;;;;;;5075756;28;20444;-71
2021/12/01 09:28:59;;;;;;;3.47;2.20;;;;;;;;;;5075472;28;20444;-71
2021/12/01 09:31:28;;;;;;;5.13;1.93;;;;;;;;;;5075404;28;20494;-71
2021/12/01 09:33:55;;;;;;;2.50;2.00;;;;;;;;;;5074363;28;20471;-71
2021/12/01 09:36:22;;;;;;;4.87;3.10;;;;;;;;;;5075617;28;20455;-71
2021/12/01 09:38:49;;;;;;;10.53;4.50;;;;;;;;;;5074874;28;20452;-72
2021/12/01 09:41:17;;;;;;;2.30;1.60;;;;;;;;;;5074935;28;20822;-71
2021/12/01 09:43:44;;;;;;;2.90;2.13;;;;;;;;;;5075020;28;20858;-71
2021/12/01 09:46:11;;;;;;;2.50;1.53;;;;;;;;;;5074041;28;20456;-71
2021/12/01 09:48:41;;;;;;;2.00;1.30;;;;;;;;;;5074492;28;20460;-72
2021/12/01 09:51:08;;;;;;;3.63;2.10;;;;;;;;;;5074468;28;20484;-71
2021/12/01 09:53:35;;;;;;;4.40;2.53;;;;;;;;;;5074594;28;20462;-71
2021/12/01 09:56:03;;;;;;;3.63;2.60;;;;;;;;;;5074468;28;20458;-72
2021/12/01 09:58:31;;;;;;;5.67;2.37;;;;;;;;;;5074947;28;20967;-71
2021/12/01 10:01:00;;;;;;;2.37;1.70;;;;;;;;;;5074743;28;20451;-71
2021/12/01 10:03:27;;;;;;;2.10;1.70;;;;;;;;;;5075061;28;20456;-71
2021/12/01 10:06:03;;;;;;;1.90;1.50;;;;;;;;;;5074907;28;20459;-71
2021/12/01 10:08:32;;;;;;;1.80;1.17;;;;;;;;;;5074905;28;20455;-71
2021/12/01 10:10:59;;;;;;;5.20;3.10;;;;;;;;;;5074373;28;20487;-71
2021/12/01 10:13:28;;;;;;;1.73;1.30;;;;;;;;;;5074422;28;20447;-72
2021/12/01 10:15:56;;;;;;;1.50;1.10;;;;;;;;;;5073865;28;20455;-72
2021/12/01 10:18:23;;;;;;;2.50;1.30;;;;;;;;;;5073807;28;20448;-71
2021/12/01 10:21:06;;;;;;;2.33;1.13;;;;;;;;;;5073940;28;20451;-72
2021/12/01 10:23:34;;;;;;;6.00;1.30;;;;;;;;;;5073968;28;20451;-71
2021/12/01 10:26:10;;;;;;;2.43;1.40;;;;;;;;;;5073999;28;20949;-72
2021/12/01 10:28:38;;;;;;;2.07;1.30;;;;;;;;;;5073650;28;20545;-71
2021/12/01 10:31:05;;;;;;;1.40;1.17;;;;;;;;;;5073904;28;20488;-72
2021/12/01 10:33:32;;;;;;;1.50;1.10;;;;;;;;;;5074155;28;20448;-72
2021/12/01 10:36:03;;;;;;;3.33;1.90;;;;;;;;;;5074195;28;20482;-71
2021/12/01 10:38:32;;;;;;;2.03;1.70;;;;;;;;;;5073653;28;20444;-72
2021/12/01 10:41:04;;;;;;;1.90;1.30;;;;;;;;;;5073680;28;20452;-71
2021/12/01 10:43:43;;;;;;;2.70;1.60;;;;;;;;;;5074218;28;20452;-71
2021/12/01 10:46:11;;;;;;;2.17;1.60;;;;;;;;;;5073597;28;20626;-72
2021/12/01 10:48:40;;;;;;;3.87;2.30;;;;;;;;;;5073580;28;20459;-71
2021/12/01 10:51:08;;;;;;;3.37;1.70;;;;;;;;;;5073994;28;20557;-72
2021/12/01 10:53:35;;;;;;;2.30;1.37;;;;;;;;;;5074228;28;20452;-71
2021/12/01 10:56:03;;;;;;;1.50;1.10;;;;;;;;;;5073629;28;20459;-71
2021/12/01 10:58:34;;;;;;;2.10;1.50;;;;;;;;;;5072814;28;20448;-72
2021/12/01 11:01:03;;;;;;;1.80;1.00;;;;;;;;;;5073372;28;20448;-72
2021/12/01 11:03:32;;;;;;;3.90;1.40;;;;;;;;;;5074047;28;20910;-72
2021/12/01 11:06:08;;;;;;;1.57;1.27;;;;;;;;;;5073749;28;20455;-72
2021/12/01 11:08:39;;;;;;;1.70;1.20;;;;;;;;;;5073432;28;20804;-71
2021/12/01 11:11:07;;;;;;;1.80;1.23;;;;;;;;;;5073165;28;20483;-71
2021/12/01 11:13:34;;;;;;;1.70;1.20;;;;;;;;;;5073292;28;20440;-71
2021/12/01 11:16:03;;;;;;;2.00;1.30;;;;;;;;;;5073238;28;20459;-71
2021/12/01 11:18:31;;;;;;;1.77;1.10;;;;;;;;;;5073137;28;20459;-71
2021/12/01 11:20:59;;;;;;;1.73;1.23;;;;;;;;;;5072896;28;20467;-71
2021/12/01 11:23:30;;;;;;;1.97;1.43;;;;;;;;;;5073204;28;20451;-72
2021/12/01 11:26:01;;;;;;;2.70;1.60;;;;;;;;;;5073091;28;20447;-72
2021/12/01 11:28:30;;;;;;;1.87;1.20;;;;;;;;;;5073039;28;20461;-72
2021/12/01 11:30:59;;;;;;;1.50;1.00;;;;;;;;;;5072866;28;20495;-72
2021/12/01 11:33:27;;;;;;;1.40;1.10;;;;;;;;;;5073500;28;20456;-72
2021/12/01 11:35:55;;;;;;;1.40;1.03;;;;;;;;;;5073575;28;20459;-71
2021/12/01 11:38:22;;;;;;;2.53;1.20;;;;;;;;;;5072967;28;20479;-71
2021/12/01 11:40:50;;;;;;;1.40;1.00;;;;;;;;;;5073239;28;20440;-72
2021/12/01 11:43:19;;;;;;;1.53;1.20;;;;;;;;;;5073162;28;20958;-73
2021/12/01 11:45:47;;;;;;;1.50;1.00;;;;;;;;;;5073156;28;20455;-73
2021/12/01 11:48:16;;;;;;;1.50;1.10;;;;;;;;;;5073153;28;20452;-73
2021/12/01 11:50:47;;;;;;;1.80;1.43;;;;;;;;;;5073085;28;20479;-73
2021/12/01 11:53:20;;;;;;;1.80;1.07;;;;;;;;;;5073043;28;20463;-73
2021/12/01 11:55:51;;;;;;;1.57;1.00;;;;;;;;;;5073343;28;20463;-73
2021/12/01 11:58:36;;;;;;;1.60;1.20;;;;;;;;;;5072951;28;21002;-73
2021/12/01 12:01:05;;;;;;;1.37;1.10;;;;;;;;;;5073139;28;20821;-71
2021/12/01 12:03:32;;;;;;;1.90;1.00;;;;;;;;;;5073026;28;20458;-72
2021/12/01 12:06:17;;;;;;;1.70;1.40;;;;;;;;;;5073055;28;20451;-73
2021/12/01 12:08:57;;;;;;;1.60;1.27;;;;;;;;;;5072920;28;20963;-73
2021/12/01 12:11:34;;;;;;;2.40;1.67;;;;;;;;;;5076348;28;20479;-73
2021/12/01 12:14:02;;;;;;;2.00;1.63;;;;;;;;;;5076287;28;20482;-73
2021/12/01 12:16:31;;;;;;;2.30;1.90;;;;;;;;;;5076026;28;20456;-73
2021/12/01 12:18:59;;;;;;;2.83;1.70;;;;;;;;;;5076279;28;20956;-73
2021/12/01 12:21:36;;;;;;;1.80;1.20;;;;;;;;;;5075948;28;20464;-73
2021/12/01 12:24:04;;;;;;;1.77;1.50;;;;;;;;;;5076139;28;20455;-73
2021/12/01 12:26:34;;;;;;;4.73;1.90;;;;;;;;;;5076213;28;20967;-73
2021/12/01 12:29:02;;;;;;;3.30;1.60;;;;;;;;;;5075999;28;20812;-73
2021/12/01 12:31:31;;;;;;;2.93;2.20;;;;;;;;;;5076175;28;21037;-73
2021/12/01 12:34:01;;;;;;;2.07;1.50;;;;;;;;;;5076012;28;20458;-73
2021/12/01 12:36:39;;;;;;;3.63;2.50;;;;;;;;;;5076065;28;20456;-73
2021/12/01 12:39:08;;;;;;;2.93;2.20;;;;;;;;;;5075611;28;20453;-73
2021/12/01 12:41:50;;;;;;;2.90;2.00;;;;;;;;;;5075551;28;20452;-73
2021/12/01 12:44:29;;;;;;;3.00;2.30;;;;;;;;;;5075961;28;20447;-73
2021/12/01 12:47:05;;;;;;;4.63;1.97;;;;;;;;;;5075448;28;20452;-73
2021/12/01 12:49:39;;;;;;;8.30;3.67;;;;;;;;;;5075441;28;20443;-73
2021/12/01 12:52:25;;;;;;;5.60;2.87;;;;;;;;;;5075607;28;20491;-73
2021/12/01 12:54:53;;;;;;;8.17;2.93;;;;;;;;;;5075647;28;20800;-73
2021/12/01 12:57:20;;;;;;;3.40;2.23;;;;;;;;;;5075595;28;20830;-73
2021/12/01 12:59:48;;;;;;;4.67;2.37;;;;;;;;;;5075547;28;20454;-73
2021/12/01 13:02:32;;;;;;;3.83;2.40;;;;;;;;;;5075601;28;20444;-73
2021/12/01 13:05:04;;;;;;;2.80;2.10;;;;;;;;;;5075171;28;20448;-73
2021/12/01 13:07:33;;;;;;;2.70;2.20;;;;;;;;;;5075217;28;20602;-73
2021/12/01 13:10:05;;;;;;;3.20;2.13;;;;;;;;;;5075076;28;20459;-73
2021/12/01 13:12:43;;;;;;;5.53;3.63;;;;;;;;;;5074886;28;20483;-71
2021/12/01 13:15:18;;;;;;;9.43;3.03;;;;;;;;;;5075357;28;20439;-71
2021/12/01 13:17:48;;;;;;;6.13;3.43;;;;;;;;;;5075210;28;20507;-71
2021/12/01 13:20:17;;;;;;;3.80;2.30;;;;;;;;;;5074999;28;20827;-71
2021/12/01 13:22:59;;;;;;;2.90;1.93;;;;;;;;;;5074434;28;20978;-71
2021/12/01 13:25:27;;;;;;;2.70;1.60;;;;;;;;;;5074929;28;20834;-71
2021/12/01 13:27:54;;;;;;;2.10;1.70;;;;;;;;;;5074939;28;20448;-71
2021/12/01 13:30:21;;;;;;;1.97;1.37;;;;;;;;;;5074837;28;20925;-71
2021/12/01 13:33:03;;;;;;;2.17;1.87;;;;;;;;;;5075350;28;21021;-71
2021/12/01 13:35:31;;;;;;;4.90;1.77;;;;;;;;;;5074986;28;20432;-71
2021/12/01 13:37:58;;;;;;;1.87;1.30;;;;;;;;;;5074793;28;20452;-71
2021/12/01 13:40:27;;;;;;;1.77;1.40;;;;;;;;;;5074522;28;20449;-71
2021/12/01 13:42:54;;;;;;;2.17;1.47;;;;;;;;;;5074672;28;20444;-71
2021/12/01 13:45:23;;;;;;;2.27;1.57;;;;;;;;;;5074292;28;20455;-71
2021/12/01 13:47:51;;;;;;;3.00;1.50;;;;;;;;;;5074314;28;20497;-71
2021/12/01 13:50:19;;;;;;;8.63;1.63;;;;;;;;;;5074504;28;20466;-71
2021/12/01 13:52:50;;;;;;;2.90;1.90;;;;;;;;;;5074574;28;20523;-71
2021/12/01 13:55:18;;;;;;;3.17;1.80;;;;;;;;;;5074432;28;20446;-71
2021/12/01 13:57:46;;;;;;;1.77;1.30;;;;;;;;;;5074395;28;20822;-71
2021/12/01 14:00:14;;;;;;;2.87;1.90;;;;;;;;;;5074386;28;20436;-71
2021/12/01 14:02:42;;;;;;;3.80;2.50;;;;;;;;;;5074311;28;20448;-71
2021/12/01 14:05:12;;;;;;;3.57;2.10;;;;;;;;;;5073902;28;20455;-71
2021/12/01 14:07:45;;;;;;;2.63;2.10;;;;;;;;;;5074179;28;20916;-71
2021/12/01 14:10:15;;;;;;;2.47;1.97;;;;;;;;;;5074081;28;20474;-71
2021/12/01 14:12:43;;;;;;;8.63;3.70;;;;;;;;;;5074301;28;20488;-71
2021/12/01 14:15:11;;;;;;;3.43;2.30;;;;;;;;;;5074006;28;20459;-71
2021/12/01 14:17:39;;;;;;;4.77;3.10;;;;;;;;;;5073651;28;20476;-72
2021/12/01 14:20:07;;;;;;;5.87;3.70;;;;;;;;;;5073522;28;20467;-71
2021/12/01 14:22:34;;;;;;;3.20;2.40;;;;;;;;;;5073981;28;20455;-71
2021/12/01 14:25:02;;;;;;;3.73;3.23;;;;;;;;;;5073923;28;20462;-71
2021/12/01 14:27:32;;;;;;;5.70;4.60;;;;;;;;;;5073790;28;20456;-71
2021/12/01 14:30:00;;;;;;;8.67;6.83;;;;;;;;;;5073754;28;20458;-71
2021/12/01 14:32:28;;;;;;;4.90;4.37;;;;;;;;;;5073731;28;20490;-71
2021/12/01 14:34:56;;;;;;;4.57;3.13;;;;;;;;;;5073687;28;20464;-71
2021/12/01 14:37:25;;;;;;;9.80;6.17;;;;;;;;;;5073378;28;20447;-71
2021/12/01 14:39:52;;;;;;;7.40;6.53;;;;;;;;;;5073624;28;20458;-71
2021/12/01 14:42:23;;;;;;;5.27;4.73;;;;;;;;;;5073286;28;20451;-71
2021/12/01 14:44:51;;;;;;;7.90;6.00;;;;;;;;;;5073584;28;20447;-71
2021/12/01 14:47:19;;;;;;;5.93;5.23;;;;;;;;;;5073600;28;20964;-71
2021/12/01 14:49:48;;;;;;;8.60;5.70;;;;;;;;;;5073538;28;20966;-71
2021/12/01 14:52:20;;;;;;;5.93;4.67;;;;;;;;;;5073528;28;20468;-72
2021/12/01 14:54:53;;;;;;;8.20;5.37;;;;;;;;;;5073602;28;20810;-72
2021/12/01 14:57:21;;;;;;;6.60;4.70;;;;;;;;;;5073499;28;20901;-71
2021/12/01 14:59:51;;;;;;;5.00;4.30;;;;;;;;;;5073241;28;20451;-71
2021/12/01 15:02:21;;;;;;;4.47;3.90;;;;;;;;;;5073662;28;20795;-71
2021/12/01 15:05:07;;;;;;;5.80;4.30;;;;;;;;;;5073480;28;20830;-71
2021/12/01 15:07:35;;;;;;;6.17;5.10;;;;;;;;;;5073134;28;20550;-71